Página principal
METAR-TAF:

METAR-TAF

Aeroportos :

Maradi, Níger

latitude: 13-28N, longitude: 007-05E, altura: 372 m

Observação actual do tempo

O boletim foi feito há 11 horas e 1 minutos, às 16:00 UTC
Vento 10 kt de sudoeste
Temperatura 42°C
Humidade 27%
Pressão 1008 hPa
Visibilidade 10 km ou mais
Poucas nuvensa uma altura de 5000 ft

METAR: DRRM 281600Z 22010KT 9999 FEW050 CB 42/19 Q1008

Hora: 04:01 (03:01 UTC)


TAF: em falta

Observações e previsões do tempo de mais de 4000 aeroportos (mensagens METAR e TAF).

As estações disponíveis são os pontos amarelos e vermelhos sobre o mapa.

Mova o rato sobre o mapa para ver o nome da estação.

Depois clique no ponto para visualizar as observações e previsões meteorológicas.

Para alterar o mapa : clique nos botões verdes com uma cruz preta para aumentar o zoom; no botão verde com uma pitada de zoom; ou nas setas verdes para mapas adjacentes.


METAR-TAF: